KFOE/FOE METAR and TAF weather

Enter ICAO airport designator
Station Type Date Time Source
KFOE METAR 2021/05/13 23:53 UTC NOAA

KFOE 132353Z 15008KT 10SM CLR 19/04 A3023


Station Type Date Time Source
KFOE Decoded METAR 2021/05/13 23:53 UTC NOAA

FORBES FIELD, KS, United States (KFOE) 38-56N 95-39W 320M
May 13, 2021 - 07:53 PM EDT / 2021.05.13 2353 UTC
Wind: from the SSE (150 degrees) at 9 MPH (8 KT):0
Visibility: 10 mile(s):0
Sky conditions: clear
Temperature: 66 F (19 C)
Dew Point: 39 F (4 C)
Relative Humidity: 37%
Pressure (altimeter): 30.23 in. Hg (1023 hPa)
ob: KFOE 132353Z 15008KT 10SM CLR 19/04 A3023
cycle: 0

Station Type Date Time Source
KFOE TAF 2021/05/14 06:22 UTC NOAA

TAF KFOE 140520Z 1406/1506 13005KT P6SM BKN250
FM141000 15007KT P6SM VCSH SCT045 OVC080
FM141800 18013KT P6SM SCT030 OVC045
FM150100 16007KT P6SM BKN045
AMD NOT SKED

Example: see airport list